createdAt,value
2019-01-06T00:02:41.785Z,100.00
2019-01-06T00:05:40.245Z,100.00
2019-01-06T00:08:35.468Z,100.00
2019-01-06T00:11:30.830Z,100.00
2019-01-06T00:14:22.737Z,100.00
2019-01-06T00:17:06.525Z,100.00
2019-01-06T00:20:07.695Z,100.00
2019-01-06T00:22:52.037Z,100.00
2019-01-06T00:25:43.912Z,100.00
2019-01-06T00:28:31.637Z,100.00
2019-01-06T00:31:32.995Z,100.00
2019-01-06T00:34:22.445Z,100.00
2019-01-06T00:37:17.627Z,100.00
2019-01-06T00:40:05.115Z,100.00
2019-01-06T00:43:00.440Z,100.00
2019-01-06T00:45:48.322Z,100.00
2019-01-06T00:48:37.606Z,100.00
2019-01-06T00:51:25.554Z,100.00
2019-01-06T00:54:12.983Z,100.00
2019-01-06T00:57:05.329Z,100.00
2019-01-06T00:59:54.700Z,100.00
2019-01-06T01:02:47.146Z,100.00
2019-01-06T01:05:34.742Z,100.00
2019-01-06T01:08:26.590Z,100.00
2019-01-06T01:11:24.522Z,100.00
2019-01-06T01:14:12.175Z,100.00
2019-01-06T01:16:55.842Z,100.00
2019-01-06T01:19:56.682Z,100.00
2019-01-06T01:22:44.280Z,100.00
2019-01-06T01:25:33.529Z,100.00
2019-01-06T01:28:31.566Z,100.00
2019-01-06T01:31:19.178Z,100.00
2019-01-06T01:34:15.052Z,100.00
2019-01-06T01:37:15.934Z,100.00
2019-01-06T01:40:01.106Z,100.00
2019-01-06T01:42:48.576Z,100.00
2019-01-06T01:45:49.744Z,100.00
2019-01-06T01:48:38.910Z,100.00
2019-01-06T01:51:23.639Z,100.00
2019-01-06T01:54:11.584Z,100.00
2019-01-06T01:56:59.026Z,100.00
2019-01-06T01:59:51.359Z,100.00
2019-01-06T02:02:46.473Z,100.00
2019-01-06T02:05:50.778Z,100.00
2019-01-06T02:08:40.413Z,100.00
2019-01-06T02:11:28.048Z,100.00
2019-01-06T02:14:32.229Z,100.00
2019-01-06T02:17:20.342Z,100.00
2019-01-06T02:20:21.277Z,100.00
2019-01-06T02:23:09.221Z,100.00
2019-01-06T02:26:07.542Z,100.00
2019-01-06T02:28:57.155Z,100.00
2019-01-06T02:31:55.385Z,100.00
2019-01-06T02:34:43.277Z,100.00
2019-01-06T02:37:36.739Z,100.00
2019-01-06T02:40:32.387Z,100.00
2019-01-06T02:43:19.965Z,100.00
2019-01-06T02:46:08.754Z,100.00
2019-01-06T02:49:05.964Z,100.00
2019-01-06T02:52:02.505Z,100.00
2019-01-06T02:54:54.324Z,100.00
2019-01-06T02:57:46.392Z,100.00
2019-01-06T03:00:35.788Z,100.00
2019-01-06T03:03:23.522Z,100.00
2019-01-06T03:06:18.535Z,100.00
2019-01-06T03:09:10.470Z,100.00
2019-01-06T03:11:57.907Z,100.00
2019-01-06T03:14:40.693Z,100.00
2019-01-06T03:17:29.250Z,100.00
2019-01-06T03:20:17.031Z,100.00
2019-01-06T03:23:12.428Z,100.00
2019-01-06T03:25:53.240Z,100.00
2019-01-06T03:28:57.117Z,100.00
2019-01-06T03:31:52.166Z,100.00
2019-01-06T03:35:00.005Z,100.00
2019-01-06T03:37:47.536Z,100.00
2019-01-06T03:40:35.343Z,100.00
2019-01-06T03:43:24.010Z,100.00
2019-01-06T03:46:16.306Z,100.00
2019-01-06T03:52:31.142Z,100.00
2019-01-06T03:55:32.246Z,100.00
2019-01-06T03:58:40.925Z,100.00
2019-01-06T04:01:43.100Z,100.00
2019-01-06T04:04:44.412Z,100.00
2019-01-06T04:07:43.941Z,100.00
2019-01-06T04:10:44.623Z,100.00
2019-01-06T04:13:53.055Z,100.00
2019-01-06T04:16:54.344Z,100.00
2019-01-06T04:20:03.127Z,100.00
2019-01-06T04:23:04.043Z,100.00
2019-01-06T04:26:12.474Z,100.00
2019-01-06T04:29:17.051Z,100.00
2019-01-06T04:32:25.553Z,100.00
2019-01-06T04:35:33.070Z,100.00
2019-01-06T04:38:41.502Z,100.00
2019-01-06T04:41:45.299Z,100.00
2019-01-06T04:44:54.010Z,100.00
2019-01-06T04:47:55.206Z,100.00
2019-01-06T04:51:03.566Z,100.00
2019-01-06T04:54:04.811Z,100.00
2019-01-06T04:57:13.374Z,100.00
2019-01-06T05:00:14.544Z,100.00
2019-01-06T05:03:03.877Z,100.00
2019-01-06T05:05:59.064Z,100.00
2019-01-06T05:09:05.908Z,100.00
2019-01-06T05:11:57.813Z,100.00
2019-01-06T05:14:45.235Z,100.00
2019-01-06T05:17:33.220Z,100.00
2019-01-06T05:20:22.478Z,100.00
2019-01-06T05:23:18.973Z,100.00
2019-01-06T05:26:06.387Z,100.00
2019-01-06T05:29:01.481Z,100.00
2019-01-06T05:31:49.309Z,100.00
2019-01-06T05:34:32.377Z,100.00
2019-01-06T05:37:26.141Z,100.00
2019-01-06T05:40:22.190Z,100.00
2019-01-06T05:43:14.122Z,100.00
2019-01-06T05:46:03.032Z,100.00
2019-01-06T05:48:50.645Z,100.00
2019-01-06T05:51:38.376Z,100.00
2019-01-06T05:54:25.930Z,100.00
2019-01-06T05:57:11.367Z,100.00
2019-01-06T05:59:59.268Z,100.00
2019-01-06T06:02:59.675Z,100.00
2019-01-06T06:08:39.447Z,100.00
2019-01-06T06:11:41.916Z,100.00
2019-01-06T06:14:50.360Z,100.00
2019-01-06T06:18:05.139Z,100.00
2019-01-06T06:20:59.918Z,100.00
2019-01-06T06:23:49.271Z,100.00
2019-01-06T06:26:56.700Z,100.00
2019-01-06T06:29:44.154Z,100.00
2019-01-06T06:32:31.706Z,100.00
2019-01-06T06:35:19.404Z,100.00
2019-01-06T06:38:06.995Z,100.00
2019-01-06T06:41:05.522Z,100.00
2019-01-06T06:43:53.014Z,100.00
2019-01-06T06:46:54.411Z,100.00
2019-01-06T06:49:41.972Z,100.00
2019-01-06T06:52:29.178Z,100.00
2019-01-06T06:55:16.780Z,100.00
2019-01-06T06:58:29.032Z,100.00
2019-01-06T07:02:21.323Z,100.00
2019-01-06T07:05:03.936Z,100.00
2019-01-06T07:08:03.230Z,100.00
2019-01-06T07:11:01.655Z,100.00
2019-01-06T07:13:55.619Z,100.00
2019-01-06T07:17:36.739Z,100.00
2019-01-06T07:20:25.512Z,100.00
2019-01-06T07:23:14.920Z,100.00
2019-01-06T07:26:10.216Z,100.00
2019-01-06T07:29:01.463Z,100.00
2019-01-06T07:32:02.376Z,100.00
2019-01-06T07:34:57.321Z,100.00
2019-01-06T07:37:52.565Z,100.00
2019-01-06T07:40:42.172Z,100.00
2019-01-06T07:43:34.336Z,100.00
2019-01-06T07:46:22.141Z,100.00
2019-01-06T07:49:17.163Z,100.00
2019-01-06T07:52:04.847Z,100.00
2019-01-06T07:55:00.162Z,100.00
2019-01-06T07:57:58.276Z,100.00
2019-01-06T08:00:46.130Z,100.00
2019-01-06T08:03:34.066Z,100.00
2019-01-06T08:06:21.766Z,100.00
2019-01-06T08:09:09.608Z,100.00
2019-01-06T08:12:01.419Z,100.00
2019-01-06T08:14:50.615Z,100.00
2019-01-06T08:17:38.202Z,100.00
2019-01-06T08:20:27.526Z,100.00
2019-01-06T08:23:36.226Z,100.00
2019-01-06T08:26:37.222Z,100.00
2019-01-06T08:29:41.275Z,100.00
2019-01-06T08:32:35.143Z,100.00
2019-01-06T08:35:23.239Z,100.00
2019-01-06T08:38:15.282Z,100.00
2019-01-06T08:41:04.481Z,100.00
2019-01-06T08:43:59.419Z,100.00
2019-01-06T08:46:51.525Z,100.00
2019-01-06T08:49:49.575Z,100.00
2019-01-06T08:52:44.863Z,100.00
2019-01-06T08:55:29.725Z,100.00
2019-01-06T08:58:18.967Z,100.00
2019-01-06T09:01:19.820Z,100.00
2019-01-06T09:04:24.179Z,100.00
2019-01-06T09:07:12.080Z,100.00
2019-01-06T09:09:55.832Z,100.00
2019-01-06T09:12:45.244Z,100.00
2019-01-06T09:15:32.749Z,100.00
2019-01-06T09:18:36.876Z,100.00
2019-01-06T09:21:37.955Z,100.00
2019-01-06T09:24:26.915Z,100.00
2019-01-06T09:27:23.470Z,100.00
2019-01-06T09:30:11.341Z,100.00
2019-01-06T09:33:09.249Z,100.00
2019-01-06T09:36:10.232Z,100.00
2019-01-06T09:39:05.088Z,100.00
2019-01-06T09:41:52.387Z,100.00
2019-01-06T09:44:41.659Z,100.00
2019-01-06T09:47:48.840Z,100.00
2019-01-06T09:50:36.625Z,100.00
2019-01-06T09:53:24.296Z,100.00
2019-01-06T09:56:25.236Z,100.00
2019-01-06T09:59:21.592Z,100.00
2019-01-06T10:02:09.720Z,100.00
2019-01-06T10:04:57.428Z,100.00
2019-01-06T10:08:01.489Z,100.00
2019-01-06T10:10:48.977Z,100.00
2019-01-06T10:13:36.474Z,100.00
2019-01-06T10:16:24.147Z,100.00
2019-01-06T10:19:13.607Z,100.00
2019-01-06T10:22:03.112Z,100.00
2019-01-06T10:25:01.233Z,100.00
2019-01-06T10:28:01.595Z,100.00
2019-01-06T10:30:51.121Z,100.00
2019-01-06T10:33:58.011Z,100.00
2019-01-06T10:37:05.159Z,100.00
2019-01-06T10:39:52.864Z,100.00
2019-01-06T10:42:50.759Z,100.00
2019-01-06T10:45:43.134Z,100.00
2019-01-06T10:48:31.162Z,100.00
2019-01-06T10:51:26.343Z,100.00
2019-01-06T10:54:11.015Z,100.00
2019-01-06T10:57:12.805Z,100.00
2019-01-06T11:00:02.069Z,100.00
2019-01-06T11:02:54.399Z,100.00
2019-01-06T11:05:42.048Z,100.00
2019-01-06T11:08:49.374Z,100.00
2019-01-06T11:11:38.950Z,100.00
2019-01-06T11:14:31.195Z,100.00
2019-01-06T11:17:26.252Z,100.00
2019-01-06T11:20:13.486Z,100.00
2019-01-06T11:23:08.484Z,100.00
2019-01-06T11:26:04.033Z,100.00
2019-01-06T11:28:51.798Z,100.00
2019-01-06T11:31:48.784Z,100.00
2019-01-06T11:34:38.302Z,100.00
2019-01-06T11:37:25.841Z,100.00
2019-01-06T11:40:13.987Z,100.00
2019-01-06T11:43:03.437Z,100.00
2019-01-06T11:46:10.662Z,100.00
2019-01-06T11:49:17.816Z,100.00
2019-01-06T11:52:07.546Z,100.00
2019-01-06T11:54:55.683Z,100.00
2019-01-06T11:57:50.763Z,100.00
2019-01-06T12:00:40.142Z,100.00
2019-01-06T12:03:35.959Z,100.00
2019-01-06T12:06:25.471Z,100.00
2019-01-06T12:09:13.513Z,100.00
2019-01-06T12:12:03.163Z,100.00
2019-01-06T12:15:04.437Z,100.00
2019-01-06T12:17:52.106Z,100.00
2019-01-06T12:20:54.081Z,100.00
2019-01-06T12:23:38.916Z,100.00
2019-01-06T12:26:27.051Z,100.00
2019-01-06T12:29:15.086Z,100.00
2019-01-06T12:32:03.122Z,100.00
2019-01-06T12:34:50.951Z,100.00
2019-01-06T12:37:38.930Z,100.00
2019-01-06T12:40:25.387Z,100.00
2019-01-06T12:43:13.214Z,100.00
2019-01-06T12:46:05.386Z,100.00
2019-01-06T12:49:09.943Z,100.00
2019-01-06T12:51:59.762Z,99.97
2019-01-06T12:54:52.225Z,99.90
2019-01-06T12:57:44.281Z,100.00
2019-01-06T13:00:29.586Z,99.83
2019-01-06T13:03:14.882Z,99.77
2019-01-06T13:06:03.025Z,99.00
2019-01-06T13:08:52.837Z,99.64
2019-01-06T13:11:50.638Z,100.00
2019-01-06T13:14:38.680Z,99.27
2019-01-06T13:17:37.229Z,99.95
2019-01-06T13:20:27.003Z,99.21
2019-01-06T13:23:14.906Z,99.17
2019-01-06T13:26:02.749Z,98.36
2019-01-06T13:28:50.600Z,98.82
2019-01-06T13:31:42.536Z,97.08
2019-01-06T13:34:29.808Z,96.88
2019-01-06T13:37:17.564Z,97.91
2019-01-06T13:40:08.154Z,97.75
2019-01-06T13:43:16.025Z,98.08
2019-01-06T13:46:17.024Z,98.75
2019-01-06T13:49:17.333Z,97.34
2019-01-06T13:52:05.324Z,96.43
2019-01-06T13:55:06.780Z,96.21
2019-01-06T13:57:54.894Z,95.69
2019-01-06T14:00:52.105Z,100.00
2019-01-06T14:03:40.104Z,95.28
2019-01-06T14:06:35.340Z,95.35
2019-01-06T14:09:23.943Z,95.79
2019-01-06T14:12:15.853Z,96.26
2019-01-06T14:15:03.402Z,96.40
2019-01-06T14:17:51.123Z,96.81
2019-01-06T14:20:38.828Z,95.49
2019-01-06T14:23:33.877Z,97.48
2019-01-06T14:26:31.838Z,97.27
2019-01-06T14:29:33.234Z,98.19
2019-01-06T14:32:28.166Z,98.12
2019-01-06T14:35:32.663Z,98.82
2019-01-06T14:38:20.304Z,98.30
2019-01-06T14:41:24.533Z,97.79
2019-01-06T14:44:14.154Z,98.63
2019-01-06T14:47:01.441Z,98.37
2019-01-06T14:49:49.246Z,98.81
2019-01-06T14:56:04.450Z,98.64
2019-01-06T14:59:12.738Z,99.13
2019-01-06T15:02:21.332Z,97.48
2019-01-06T15:05:20.768Z,98.05
2019-01-06T15:08:21.724Z,97.41
2019-01-06T15:14:36.507Z,97.79
2019-01-06T15:17:44.878Z,98.39
2019-01-06T15:20:53.251Z,98.42
2019-01-06T15:23:54.294Z,97.59
2019-01-06T15:27:02.938Z,98.43
2019-01-06T15:30:03.721Z,98.83
2019-01-06T15:33:12.372Z,98.65
2019-01-06T15:36:19.888Z,99.19
2019-01-06T15:39:28.415Z,98.96
2019-01-06T15:42:35.465Z,98.92
2019-01-06T15:45:34.159Z,99.58
2019-01-06T15:48:42.799Z,99.78
2019-01-06T15:51:43.847Z,100.00
2019-01-06T15:54:52.195Z,100.00
2019-01-06T15:57:53.410Z,100.00
2019-01-06T16:01:02.270Z,100.00
2019-01-06T16:04:03.530Z,100.00
2019-01-06T16:07:04.412Z,100.00
2019-01-06T16:10:05.249Z,100.00
2019-01-06T16:13:13.648Z,100.00
2019-01-06T16:16:14.767Z,100.00
2019-01-06T16:19:23.475Z,100.00
2019-01-06T16:22:24.166Z,100.00
2019-01-06T16:28:27.220Z,100.00
2019-01-06T16:31:25.347Z,100.00
2019-01-06T16:34:33.896Z,100.00
2019-01-06T16:37:35.469Z,100.00
2019-01-06T16:40:43.846Z,100.00
2019-01-06T16:43:41.485Z,100.00
2019-01-06T16:46:49.875Z,100.00
2019-01-06T16:49:51.374Z,100.00
2019-01-06T16:52:59.846Z,100.00
2019-01-06T16:56:04.059Z,100.00
2019-01-06T16:59:12.514Z,100.00
2019-01-06T17:02:10.325Z,100.00
2019-01-06T17:04:59.517Z,100.00
2019-01-06T17:07:57.655Z,100.00
2019-01-06T17:10:45.287Z,100.00
2019-01-06T17:13:33.424Z,100.00
2019-01-06T17:16:21.464Z,100.00
2019-01-06T17:19:09.239Z,100.00
2019-01-06T17:22:16.474Z,100.00
2019-01-06T17:25:23.990Z,100.00
2019-01-06T17:28:15.795Z,100.00
2019-01-06T17:30:59.656Z,100.00
2019-01-06T17:33:49.167Z,100.00
2019-01-06T17:36:44.994Z,100.00
2019-01-06T17:39:42.931Z,100.00
2019-01-06T17:42:32.858Z,100.00
2019-01-06T17:45:24.622Z,100.00
2019-01-06T17:48:07.439Z,100.00
2019-01-06T17:50:56.669Z,100.00
2019-01-06T17:53:55.085Z,100.00
2019-01-06T17:56:44.444Z,100.00
2019-01-06T17:59:27.849Z,100.00
2019-01-06T18:02:16.307Z,100.00
2019-01-06T18:05:04.049Z,100.00
2019-01-06T18:08:08.027Z,100.00
2019-01-06T18:10:55.378Z,100.00
2019-01-06T18:13:43.130Z,100.00
2019-01-06T18:16:30.639Z,100.00
2019-01-06T18:19:25.937Z,100.00
2019-01-06T18:22:21.001Z,100.00
2019-01-06T18:25:13.293Z,100.00
2019-01-06T18:28:17.146Z,100.00
2019-01-06T18:31:25.519Z,100.00
2019-01-06T18:34:26.285Z,100.00
2019-01-06T18:37:34.730Z,100.00
2019-01-06T18:40:35.728Z,100.00
2019-01-06T18:43:32.141Z,100.00
2019-01-06T18:46:19.791Z,100.00
2019-01-06T18:49:28.217Z,100.00
2019-01-06T18:52:20.145Z,100.00
2019-01-06T18:55:28.776Z,100.00
2019-01-06T18:58:29.766Z,100.00
2019-01-06T19:01:38.164Z,100.00
2019-01-06T19:04:39.133Z,100.00
2019-01-06T19:07:47.436Z,100.00
2019-01-06T19:10:37.211Z,100.00
2019-01-06T19:13:45.577Z,100.00
2019-01-06T19:16:42.387Z,100.00
2019-01-06T19:19:50.854Z,100.00
2019-01-06T19:22:51.888Z,100.00
2019-01-06T19:26:00.258Z,100.00
2019-01-06T19:28:59.751Z,100.00
2019-01-06T19:32:03.754Z,100.00
2019-01-06T19:35:12.168Z,100.00
2019-01-06T19:38:13.539Z,100.00
2019-01-06T19:41:14.407Z,100.00
2019-01-06T19:44:23.015Z,100.00
2019-01-06T19:47:22.957Z,100.00
2019-01-06T19:50:24.522Z,100.00
2019-01-06T19:53:25.448Z,100.00
2019-01-06T19:56:34.165Z,100.00
2019-01-06T19:59:35.097Z,100.00
2019-01-06T20:02:43.809Z,100.00
2019-01-06T20:05:44.466Z,100.00
2019-01-06T20:08:52.830Z,100.00
2019-01-06T20:11:53.774Z,100.00
2019-01-06T20:15:02.055Z,100.00
2019-01-06T20:18:03.179Z,100.00
2019-01-06T20:21:11.549Z,100.00
2019-01-06T20:24:12.681Z,100.00
2019-01-06T20:27:21.066Z,100.00
2019-01-06T20:30:22.087Z,100.00
2019-01-06T20:33:30.915Z,100.00
2019-01-06T20:36:31.961Z,100.00
2019-01-06T20:39:20.146Z,100.00
2019-01-06T20:42:08.261Z,100.00
2019-01-06T20:45:10.117Z,100.00
2019-01-06T20:47:57.779Z,100.00
2019-01-06T20:50:44.965Z,100.00
2019-01-06T20:53:40.088Z,100.00
2019-01-06T20:56:38.384Z,100.00
2019-01-06T20:59:26.582Z,100.00
2019-01-06T21:02:14.817Z,100.00
2019-01-06T21:05:02.297Z,100.00
2019-01-06T21:07:50.052Z,100.00
2019-01-06T21:10:42.325Z,100.00
2019-01-06T21:13:29.830Z,100.00
2019-01-06T21:16:19.178Z,100.00
2019-01-06T21:19:10.055Z,100.00
2019-01-06T21:22:02.088Z,100.00
2019-01-06T21:25:00.166Z,100.00
2019-01-06T21:27:48.298Z,100.00
2019-01-06T21:30:49.311Z,100.00
2019-01-06T21:33:37.104Z,100.00
2019-01-06T21:36:24.584Z,100.00
2019-01-06T21:39:25.880Z,100.00
2019-01-06T21:42:24.127Z,100.00
2019-01-06T21:45:32.575Z,100.00
2019-01-06T21:48:29.496Z,100.00
2019-01-06T21:51:38.237Z,100.00
2019-01-06T21:54:39.585Z,100.00
2019-01-06T21:57:48.012Z,100.00
2019-01-06T22:00:51.942Z,100.00
2019-01-06T22:04:00.330Z,100.00
2019-01-06T22:07:01.802Z,100.00
2019-01-06T22:10:10.154Z,100.00
2019-01-06T22:13:10.858Z,100.00
2019-01-06T22:16:19.335Z,100.00
2019-01-06T22:19:20.269Z,100.00
2019-01-06T22:25:28.437Z,100.00
2019-01-06T22:28:37.164Z,100.00
2019-01-06T22:31:26.430Z,100.00
2019-01-06T22:34:27.431Z,100.00
2019-01-06T22:37:36.112Z,100.00
2019-01-06T22:40:43.114Z,100.00
2019-01-06T22:43:47.027Z,100.00
2019-01-06T22:50:28.953Z,100.00
2019-01-06T22:53:37.714Z,100.00
2019-01-06T22:56:43.725Z,100.00
2019-01-06T22:59:40.137Z,100.00
2019-01-06T23:02:48.581Z,100.00
2019-01-06T23:05:49.721Z,100.00
2019-01-06T23:09:02.158Z,100.00
2019-01-06T23:11:51.756Z,100.00
2019-01-06T23:18:01.393Z,100.00
2019-01-06T23:21:02.000Z,100.00
2019-01-06T23:24:10.646Z,100.00
2019-01-06T23:27:11.586Z,100.00
2019-01-06T23:30:20.298Z,100.00
2019-01-06T23:33:24.626Z,100.00
2019-01-06T23:36:33.104Z,100.00
2019-01-06T23:39:33.910Z,100.00
2019-01-06T23:42:42.728Z,100.00
2019-01-06T23:45:34.760Z,100.00
2019-01-06T23:48:25.141Z,100.00
2019-01-06T23:51:12.802Z,100.00
2019-01-06T23:53:59.495Z,100.00
2019-01-06T23:56:48.741Z,100.00
2019-01-06T23:59:37.067Z,100.00
